Time;durP1;ratioP1;P1;durP2;ratioP2;P2;SDS_P1;SDS_P2;PMS_P1;PMS_P2;Temp;Humidity;BMP_temperature;BMP_pressure;BME280_temperature;BME280_humidity;BME280_pressure;Samples;Min_cycle;Max_cycle;Signal;HPM_P1;HPM_P2
2024/01/20 00:00:16;;;;;;;41.88;19.48;;;;;;;-3.13;100.00;101588.38;5042335;28;20045;-70
2024/01/20 00:02:45;;;;;;;42.03;20.15;;;;;;;-3.03;100.00;101599.91;5019971;28;20042;-71
2024/01/20 00:05:14;;;;;;;41.38;21.20;;;;;;;-3.01;100.00;101585.28;5022894;28;20505;-72
2024/01/20 00:07:47;;;;;;;32.47;16.85;;;;;;;-2.90;100.00;101601.97;5039330;28;20125;-71
2024/01/20 00:10:18;;;;;;;41.30;21.17;;;;;;;-2.92;100.00;101603.66;5022060;28;20096;-71
2024/01/20 00:12:48;;;;;;;44.28;21.75;;;;;;;-2.96;100.00;101609.56;5025889;28;20045;-71
2024/01/20 00:15:18;;;;;;;45.35;20.90;;;;;;;-3.15;100.00;101602.16;5022835;28;20534;-74
2024/01/20 00:17:46;;;;;;;49.15;22.73;;;;;;;-3.36;100.00;101599.84;5040797;28;20807;-71
2024/01/20 00:20:14;;;;;;;47.85;23.27;;;;;;;-3.41;100.00;101597.09;5041577;28;20034;-69
2024/01/20 00:22:49;;;;;;;48.65;23.25;;;;;;;-3.84;100.00;101542.34;5016399;28;20049;-71
2024/01/20 00:25:22;;;;;;;52.33;24.65;;;;;;;-3.62;100.00;101602.53;5024470;28;20064;-70
2024/01/20 00:27:53;;;;;;;53.50;25.10;;;;;;;-3.77;100.00;101598.59;5039122;28;20143;-71
2024/01/20 00:30:23;;;;;;;51.95;24.55;;;;;;;-3.88;100.00;101599.16;5028814;28;20060;-71
2024/01/20 00:32:51;;;;;;;52.25;25.30;;;;;;;-3.90;100.00;101618.06;5031446;28;20057;-70
2024/01/20 00:35:19;;;;;;;59.45;25.40;;;;;;;-3.92;100.00;101619.72;5052550;28;20052;-69
2024/01/20 00:37:51;;;;;;;51.38;25.23;;;;;;;-3.98;100.00;101616.97;5037186;28;20314;-72
2024/01/20 00:40:20;;;;;;;49.85;23.85;;;;;;;-3.82;100.00;101616.59;5030977;28;20056;-70
2024/01/20 00:42:48;;;;;;;50.45;23.83;;;;;;;-3.72;100.00;101616.03;5030026;28;21008;-70
2024/01/20 00:45:16;;;;;;;50.25;23.73;;;;;;;-3.64;100.00;101614.56;5025702;28;20059;-70
2024/01/20 00:47:47;;;;;;;48.33;24.13;;;;;;;-3.56;100.00;101618.25;5040102;28;20056;-71
2024/01/20 00:50:17;;;;;;;46.63;23.15;;;;;;;-3.43;100.00;101624.66;5036559;28;20049;-70
2024/01/20 00:52:45;;;;;;;47.95;22.73;;;;;;;-3.38;100.00;101623.09;5012834;28;20048;-71
2024/01/20 00:55:18;;;;;;;48.22;23.75;;;;;;;-3.59;100.00;101615.56;5020315;28;20117;-71
2024/01/20 00:57:50;;;;;;;49.25;22.92;;;;;;;-3.66;100.00;101621.41;5022414;28;20049;-71
2024/01/20 01:00:18;;;;;;;56.88;24.25;;;;;;;-3.71;100.00;101622.09;5038933;28;20041;-72
2024/01/20 01:02:46;;;;;;;46.63;22.65;;;;;;;-3.78;100.00;101627.94;5014891;28;20190;-71
2024/01/20 01:05:17;;;;;;;43.88;22.77;;;;;;;-3.90;100.00;101628.41;5023801;28;20037;-70
2024/01/20 01:07:46;;;;;;;49.83;23.77;;;;;;;-4.03;100.00;101632.31;5022432;28;20042;-72
2024/01/20 01:10:20;;;;;;;49.28;23.45;;;;;;;-4.13;100.00;101634.59;5027222;28;20499;-69
2024/01/20 01:12:53;;;;;;;48.10;22.55;;;;;;;-4.16;100.00;101644.81;5028402;28;20049;-71
2024/01/20 01:15:23;;;;;;;51.53;23.38;;;;;;;-4.21;100.00;101642.06;5047430;28;20045;-71
2024/01/20 01:17:56;;;;;;;53.63;24.65;;;;;;;-4.29;100.00;101644.44;5036552;28;20033;-70
2024/01/20 01:20:25;;;;;;;57.40;25.30;;;;;;;-4.32;100.00;101638.28;5020554;28;20038;-70
2024/01/20 01:22:53;;;;;;;50.90;24.23;;;;;;;-4.50;100.00;101619.56;5029549;28;20097;-69
2024/01/20 01:25:22;;;;;;;53.95;24.67;;;;;;;-4.45;100.00;101643.88;5027365;28;20121;-71
2024/01/20 01:27:51;;;;;;;50.70;24.20;;;;;;;-4.50;100.00;101656.63;5043076;28;20047;-71
2024/01/20 01:30:21;;;;;;;59.38;25.27;;;;;;;-4.49;100.00;101652.34;5027649;28;20052;-71
2024/01/20 01:32:53;;;;;;;53.67;25.65;;;;;;;-4.61;100.00;101653.69;5028322;28;20179;-70
2024/01/20 01:35:21;;;;;;;53.42;24.02;;;;;;;-4.61;100.00;101661.44;5037967;28;20058;-72
2024/01/20 01:37:51;;;;;;;57.70;25.02;;;;;;;-4.60;100.00;101663.22;5023665;28;20084;-70
2024/01/20 01:40:19;;;;;;;58.72;24.80;;;;;;;-4.55;100.00;101671.09;5026804;28;20045;-71
2024/01/20 01:42:56;;;;;;;50.47;22.98;;;;;;;-4.61;100.00;101664.03;5022439;28;20493;-71
2024/01/20 01:45:25;;;;;;;53.70;23.85;;;;;;;-4.50;100.00;101658.34;5020646;28;20049;-70
2024/01/20 01:47:55;;;;;;;52.78;24.00;;;;;;;-4.34;100.00;101663.19;5027124;28;20050;-76
2024/01/20 01:50:24;;;;;;;49.83;23.33;;;;;;;-4.38;100.00;101663.91;5024101;28;20100;-72
2024/01/20 01:52:54;;;;;;;49.70;23.55;;;;;;;-4.34;100.00;101656.31;5033227;28;20045;-69
2024/01/20 01:55:27;;;;;;;52.40;23.77;;;;;;;-4.30;100.00;101665.94;5019125;28;20042;-70
2024/01/20 01:57:57;;;;;;;51.42;23.20;;;;;;;-4.18;100.00;101660.28;5022490;28;20055;-70
2024/01/20 02:00:27;;;;;;;51.00;24.45;;;;;;;-4.22;100.00;101670.47;5038968;28;20054;-70
2024/01/20 02:02:55;;;;;;;43.47;20.65;;;;;;;-4.36;100.00;101670.91;5032556;28;20053;-70
2024/01/20 02:05:25;;;;;;;51.15;25.30;;;;;;;-4.52;100.00;101665.16;5015148;28;20041;-73
2024/01/20 02:07:54;;;;;;;59.08;25.65;;;;;;;-4.60;100.00;101667.50;5037432;28;20065;-71
2024/01/20 02:10:23;;;;;;;55.65;26.92;;;;;;;-4.70;100.00;101686.06;5037062;28;20493;-70
2024/01/20 02:12:51;;;;;;;56.25;25.00;;;;;;;-4.75;100.00;101669.53;5017445;28;20052;-70
2024/01/20 02:15:22;;;;;;;59.38;25.70;;;;;;;-4.73;100.00;101681.69;5035317;28;20164;-70
2024/01/20 02:17:54;;;;;;;55.95;26.20;;;;;;;-4.85;100.00;101686.41;5005384;28;20132;-69
2024/01/20 02:20:23;;;;;;;63.92;26.75;;;;;;;-4.78;100.00;101685.81;5020829;28;20103;-71
2024/01/20 02:22:53;;;;;;;67.80;27.73;;;;;;;-4.61;100.00;101689.00;5034941;28;20053;-70
2024/01/20 02:25:22;;;;;;;;;;;;;;;-4.57;100.00;101690.00;5025055;28;20049;-71
2024/01/20 02:27:50;;;;;;;66.72;26.65;;;;;;;-4.66;100.00;101691.41;5029698;28;19944;-70
2024/01/20 02:30:20;;;;;;;67.88;29.15;;;;;;;-4.80;100.00;101681.41;5030303;28;20049;-70
2024/01/20 02:32:49;;;;;;;66.25;27.55;;;;;;;-4.79;100.00;101689.22;5040278;28;20462;-70
2024/01/20 02:35:19;;;;;;;66.88;27.65;;;;;;;-4.68;100.00;101674.09;5000371;28;20091;-71
2024/01/20 02:37:47;;;;;;;69.65;28.58;;;;;;;-4.47;100.00;101680.00;5021094;28;20045;-69
2024/01/20 02:40:18;;;;;;;70.20;28.45;;;;;;;-4.43;100.00;101678.41;5018292;28;20057;-71
2024/01/20 02:42:46;;;;;;;62.88;26.95;;;;;;;-4.55;100.00;101699.53;5020019;28;20037;-71
2024/01/20 02:45:17;;;;;;;69.60;28.40;;;;;;;-4.57;100.00;101682.22;5018791;28;20117;-71
2024/01/20 02:47:46;;;;;;;65.68;27.05;;;;;;;-4.41;100.00;101700.91;5020603;28;20097;-73
2024/01/20 02:50:14;;;;;;;59.85;26.50;;;;;;;-4.54;100.00;101709.03;5036011;28;22314;-69
2024/01/20 02:52:44;;;;;;;59.50;26.45;;;;;;;-4.62;100.00;101711.38;5019683;28;20053;-70
2024/01/20 02:55:17;;;;;;;61.65;27.77;;;;;;;-4.77;100.00;101713.41;5018837;28;20077;-70
2024/01/20 02:57:48;;;;;;;61.05;25.73;;;;;;;-4.87;100.00;101700.09;5030674;28;20037;-69
2024/01/20 03:00:18;;;;;;;62.95;26.13;;;;;;;-4.93;100.00;101707.63;5036075;28;20092;-68
2024/01/20 03:02:46;;;;;;;67.38;26.73;;;;;;;-4.95;100.00;101703.28;5039472;28;20050;-71
2024/01/20 03:05:14;;;;;;;65.90;27.23;;;;;;;-5.00;100.00;101714.28;5032083;28;20473;-70
2024/01/20 03:07:43;;;;;;;66.95;27.88;;;;;;;-5.15;100.00;101724.03;5033584;28;20588;-69
2024/01/20 03:10:11;;;;;;;65.57;27.08;;;;;;;-5.24;100.00;101727.16;5035578;28;20069;-70
2024/01/20 03:12:43;;;;;;;;;;;;;;;-5.27;100.00;101718.41;5044338;28;20049;-70
2024/01/20 03:15:12;;;;;;;43.28;18.67;;;;;;;-5.30;100.00;101699.41;5019374;28;19986;-69
2024/01/20 03:17:40;;;;;;;62.67;25.65;;;;;;;-5.09;100.00;101706.19;5043992;28;20045;-70
2024/01/20 03:20:11;;;;;;;60.35;26.25;;;;;;;-4.97;100.00;101701.47;5045155;28;20060;-71
2024/01/20 03:22:39;;;;;;;;;;;;;;;-4.86;100.00;101705.31;5021023;28;20060;-70
2024/01/20 03:25:08;;;;;;;58.30;24.70;;;;;;;-4.89;100.00;101717.28;5029960;28;19936;-71
2024/01/20 03:27:38;;;;;;;46.92;21.92;;;;;;;-5.02;100.00;101721.97;5019578;28;20045;-70
2024/01/20 03:30:10;;;;;;;59.03;26.38;;;;;;;-5.03;100.00;101712.44;5020268;28;20046;-71
2024/01/20 03:32:40;;;;;;;66.60;27.83;;;;;;;-4.82;100.00;101725.28;5026275;28;20065;-71
2024/01/20 03:35:09;;;;;;;68.03;27.05;;;;;;;-4.71;100.00;101723.06;5014631;28;20071;-70
2024/01/20 03:37:41;;;;;;;62.53;27.63;;;;;;;-4.56;100.00;101726.19;5034887;28;20077;-71
2024/01/20 03:40:11;;;;;;;64.80;28.00;;;;;;;-4.50;100.00;101725.56;5015680;28;20166;-70
2024/01/20 03:42:40;;;;;;;63.92;26.92;;;;;;;-4.39;100.00;101731.97;5023860;28;20061;-71
2024/01/20 03:45:10;;;;;;;47.53;20.47;;;;;;;-4.38;100.00;101731.13;4995776;28;20057;-71
2024/01/20 03:47:38;;;;;;;65.97;26.38;;;;;;;-4.33;100.00;101730.47;5006159;28;20495;-70
2024/01/20 03:50:10;;;;;;;64.28;26.77;;;;;;;-4.31;100.00;101743.47;5010921;28;20057;-71
2024/01/20 03:52:40;;;;;;;58.97;25.50;;;;;;;-4.26;100.00;101736.75;5017765;28;20048;-71
2024/01/20 03:55:10;;;;;;;45.87;20.17;;;;;;;-4.21;100.00;101732.59;4995063;28;20046;-70
2024/01/20 03:57:41;;;;;;;58.92;26.20;;;;;;;-4.15;100.00;101743.16;5018218;28;20050;-70
2024/01/20 04:00:14;;;;;;;59.72;26.42;;;;;;;-4.20;100.00;101747.28;5038961;28;20056;-71
2024/01/20 04:02:44;;;;;;;56.75;25.20;;;;;;;-4.26;100.00;101744.50;5014888;28;20057;-72
2024/01/20 04:05:11;;;;;;;57.40;24.67;;;;;;;-4.26;100.00;101745.41;5034702;28;20042;-71
2024/01/20 04:07:40;;;;;;;52.75;23.50;;;;;;;-4.31;100.00;101730.53;5038991;28;20053;-71
2024/01/20 04:10:10;;;;;;;59.08;24.50;;;;;;;-4.18;100.00;101748.22;5027876;28;20587;-71
2024/01/20 04:12:44;;;;;;;57.95;24.55;;;;;;;-4.35;100.00;101749.34;5040332;28;20057;-70
2024/01/20 04:15:13;;;;;;;63.67;25.75;;;;;;;-4.59;100.00;101749.38;5014967;28;20049;-71
2024/01/20 04:17:42;;;;;;;69.40;27.75;;;;;;;-4.85;100.00;101750.13;5023657;28;20526;-71
2024/01/20 04:20:13;;;;;;;51.43;20.00;;;;;;;-5.02;100.00;101765.88;5036590;28;20069;-70
2024/01/20 04:22:42;;;;;;;52.30;19.98;;;;;;;-5.16;100.00;101764.47;5019005;28;20045;-71
2024/01/20 04:25:10;;;;;;;69.18;26.20;;;;;;;-5.15;100.00;101767.94;5030266;28;20543;-71
2024/01/20 04:27:40;;;;;;;68.07;25.75;;;;;;;-4.97;100.00;101766.06;5022261;28;20061;-69
2024/01/20 04:30:11;;;;;;;65.68;25.83;;;;;;;-4.80;100.00;101746.88;5039817;28;20490;-70
2024/01/20 04:32:41;;;;;;;65.65;26.60;;;;;;;-4.56;100.00;101767.56;5027900;28;20081;-71
2024/01/20 04:35:11;;;;;;;60.38;25.42;;;;;;;-4.48;100.00;101748.03;5006940;28;20104;-71
2024/01/20 04:37:39;;;;;;;56.53;23.73;;;;;;;-4.27;100.00;101755.69;5037692;28;20048;-72
2024/01/20 04:40:11;;;;;;;61.47;24.38;;;;;;;-4.14;100.00;101751.81;5023860;28;20128;-71
2024/01/20 04:42:39;;;;;;;66.28;25.85;;;;;;;-4.05;100.00;101747.81;5006320;28;20140;-71
2024/01/20 04:45:12;;;;;;;63.85;25.55;;;;;;;-3.96;100.00;101761.06;5015266;28;20055;-70
2024/01/20 04:47:42;;;;;;;69.10;26.48;;;;;;;-3.82;100.00;101768.41;5037163;28;20568;-72
2024/01/20 04:50:12;;;;;;;66.80;25.80;;;;;;;-3.84;100.00;101765.78;5023316;28;20133;-71
2024/01/20 04:52:41;;;;;;;69.53;25.90;;;;;;;-3.72;100.00;101768.75;5037801;28;20460;-70
2024/01/20 04:55:09;;;;;;;70.68;27.50;;;;;;;-3.74;100.00;101761.75;5018331;28;20046;-70
2024/01/20 04:57:37;;;;;;;62.83;26.88;;;;;;;-3.71;100.00;101760.16;5039200;28;20072;-71
2024/01/20 05:00:09;;;;;;;65.32;26.90;;;;;;;-3.69;100.00;101771.44;5039563;28;20038;-71
2024/01/20 05:02:37;;;;;;;;;;;;;;;-3.67;100.00;101767.22;5020442;28;20097;-71
2024/01/20 05:05:10;;;;;;;64.90;25.83;;;;;;;-3.67;100.00;101768.91;5033439;28;19930;-70
2024/01/20 05:07:39;;;;;;;63.78;25.10;;;;;;;-3.67;100.00;101772.38;5025281;28;20040;-70
2024/01/20 05:10:10;;;;;;;64.45;25.55;;;;;;;-3.70;100.00;101772.28;5039472;28;20126;-72
2024/01/20 05:12:39;;;;;;;58.33;24.90;;;;;;;-3.78;100.00;101765.09;5040479;28;20077;-75
2024/01/20 05:15:11;;;;;;;65.18;26.15;;;;;;;-3.74;100.00;101772.13;5013613;28;20487;-70
2024/01/20 05:17:42;;;;;;;62.95;25.83;;;;;;;-3.75;100.00;101772.94;5040138;28;20046;-70
2024/01/20 05:20:14;;;;;;;68.88;26.10;;;;;;;-3.75;100.00;101775.53;5044856;28;20148;-69
2024/01/20 05:22:43;;;;;;;64.18;25.02;;;;;;;-3.71;100.00;101775.69;5021068;28;20053;-70
2024/01/20 05:25:14;;;;;;;66.60;26.77;;;;;;;-3.71;100.00;101785.16;5018871;28;20058;-70
2024/01/20 05:27:43;;;;;;;63.03;26.85;;;;;;;-3.76;100.00;101778.94;5029277;28;20044;-70
2024/01/20 05:30:14;;;;;;;64.95;25.25;;;;;;;-3.65;100.00;101783.66;5021140;28;20030;-71
2024/01/20 05:32:47;;;;;;;63.13;26.42;;;;;;;-3.60;100.00;101792.44;5032695;28;20049;-70
2024/01/20 05:35:19;;;;;;;62.08;26.40;;;;;;;-3.58;100.00;101792.50;5021332;28;20067;-71
2024/01/20 05:37:49;;;;;;;63.38;27.17;;;;;;;-3.63;100.00;101794.09;5030444;28;20045;-70
2024/01/20 05:40:17;;;;;;;;;;;;;;;-3.57;100.00;101797.72;5029900;28;20140;-69
2024/01/20 05:42:47;;;;;;;59.40;23.92;;;;;;;-3.52;100.00;101800.47;5005873;28;19940;-70
2024/01/20 05:45:16;;;;;;;62.95;25.83;;;;;;;-3.50;100.00;101818.66;5013266;28;20120;-70
2024/01/20 05:47:47;;;;;;;60.78;26.33;;;;;;;-3.50;100.00;101824.72;5025050;28;20181;-71
2024/01/20 05:50:15;;;;;;;66.60;24.73;;;;;;;-3.47;100.00;101823.94;5020847;28;20041;-71
2024/01/20 05:52:48;;;;;;;63.88;25.83;;;;;;;-3.56;100.00;101830.56;5037878;28;20518;-70
2024/01/20 05:55:17;;;;;;;66.38;26.02;;;;;;;-3.55;100.00;101828.84;5014883;28;20069;-71
2024/01/20 05:57:48;;;;;;;49.97;20.57;;;;;;;-3.61;100.00;101834.69;5021443;28;20426;-70
2024/01/20 06:00:19;;;;;;;61.10;25.92;;;;;;;-3.62;100.00;101834.69;5020757;28;20069;-70
2024/01/20 06:02:47;;;;;;;62.53;25.58;;;;;;;-3.60;100.00;101838.16;5036442;28;20052;-71
2024/01/20 06:05:18;;;;;;;69.00;26.85;;;;;;;-3.60;100.00;101839.03;5011142;28;20053;-70
2024/01/20 06:07:50;;;;;;;;;;;;;;;-3.65;100.00;101850.09;5037471;28;20050;-70
2024/01/20 06:10:19;;;;;;;57.40;24.75;;;;;;;-3.66;100.00;101851.81;5003002;28;19920;-71
2024/01/20 06:12:48;;;;;;;63.90;25.85;;;;;;;-3.76;100.00;101849.72;5020987;28;20506;-70
2024/01/20 06:15:16;;;;;;;63.40;25.52;;;;;;;-3.74;100.00;101862.72;5028552;28;20085;-69
2024/01/20 06:17:49;;;;;;;59.60;25.75;;;;;;;-3.74;100.00;101842.00;5021197;28;20111;-73
2024/01/20 06:20:17;;;;;;;62.72;25.40;;;;;;;-3.56;100.00;101846.09;5021035;28;20101;-70
2024/01/20 06:22:47;;;;;;;63.13;25.17;;;;;;;-3.52;100.00;101862.63;5034120;28;20059;-72
2024/01/20 06:25:20;;;;;;;59.20;25.15;;;;;;;-3.64;100.00;101849.28;5033211;28;20100;-71
2024/01/20 06:27:48;;;;;;;65.45;26.60;;;;;;;-3.62;100.00;101865.75;5043009;28;20049;-72
2024/01/20 06:30:17;;;;;;;62.10;24.52;;;;;;;-3.55;100.00;101883.22;5025056;28;20148;-70
2024/01/20 06:32:47;;;;;;;66.40;26.60;;;;;;;-3.57;100.00;101879.69;5037076;28;20107;-71
2024/01/20 06:35:17;;;;;;;67.65;26.00;;;;;;;-3.56;100.00;101876.28;5020161;28;20045;-69
2024/01/20 06:37:49;;;;;;;50.28;21.70;;;;;;;-3.59;100.00;101891.72;5021808;28;20060;-70
2024/01/20 06:40:17;;;;;;;65.95;26.67;;;;;;;-3.69;100.00;101893.13;5025718;28;20096;-70
2024/01/20 06:42:46;;;;;;;50.55;20.35;;;;;;;-3.86;100.00;101894.22;5007794;28;20403;-72
2024/01/20 06:45:14;;;;;;;62.35;24.85;;;;;;;-3.84;100.00;101887.41;5032004;28;20540;-69
2024/01/20 06:47:45;;;;;;;62.33;25.10;;;;;;;-3.78;100.00;101889.34;5012932;28;20064;-71
2024/01/20 06:50:15;;;;;;;67.78;26.67;;;;;;;-3.77;100.00;101891.94;5038468;28;20124;-71
2024/01/20 06:52:44;;;;;;;51.17;21.10;;;;;;;-3.73;100.00;101893.81;5020478;28;20517;-72
2024/01/20 06:55:16;;;;;;;63.10;25.55;;;;;;;-3.95;100.00;101906.84;5029949;28;20081;-71
2024/01/20 06:57:44;;;;;;;69.63;27.15;;;;;;;-4.03;100.00;101914.31;5034903;28;20069;-71
2024/01/20 07:00:15;;;;;;;77.93;27.88;;;;;;;-4.05;100.00;101910.81;5019889;28;20050;-71
2024/01/20 07:02:45;;;;;;;55.20;21.63;;;;;;;-3.93;100.00;101913.81;5017136;28;20721;-71
2024/01/20 07:05:15;;;;;;;72.50;29.33;;;;;;;-3.83;100.00;101919.34;5029198;28;20583;-70
2024/01/20 07:07:43;;;;;;;59.93;22.50;;;;;;;-3.81;100.00;101920.28;5018397;28;20139;-71
2024/01/20 07:10:14;;;;;;;75.13;27.23;;;;;;;-4.12;100.00;101898.50;5021005;28;20125;-70
2024/01/20 07:12:46;;;;;;;76.20;27.80;;;;;;;-4.04;100.00;101925.50;5020257;28;20033;-69
2024/01/20 07:15:16;;;;;;;77.85;28.45;;;;;;;-4.02;100.00;101925.56;5032296;28;20100;-71
2024/01/20 07:17:45;;;;;;;79.30;27.52;;;;;;;-3.93;100.00;101934.53;5021029;28;20065;-72
2024/01/20 07:20:14;;;;;;;67.50;25.73;;;;;;;-4.06;100.00;101932.31;5019905;28;20539;-68
2024/01/20 07:22:44;;;;;;;66.88;27.65;;;;;;;-4.12;100.00;101933.81;5025588;28;20045;-70
2024/01/20 07:25:13;;;;;;;71.35;27.80;;;;;;;-4.25;100.00;101930.75;5017824;28;20044;-70
2024/01/20 07:27:41;;;;;;;70.47;26.15;;;;;;;-4.26;100.00;101934.19;5032855;28;20722;-70
2024/01/20 07:30:11;;;;;;;67.82;26.85;;;;;;;-4.18;100.00;101934.47;5020416;28;20042;-72
2024/01/20 07:32:40;;;;;;;71.72;28.00;;;;;;;-4.15;100.00;101939.75;5020237;28;20049;-70
2024/01/20 07:35:09;;;;;;;70.03;27.15;;;;;;;-4.22;100.00;101937.75;5014171;28;20102;-69
2024/01/20 07:37:39;;;;;;;69.15;26.48;;;;;;;-4.27;100.00;101935.00;5032739;28;20124;-68
2024/01/20 07:40:09;;;;;;;65.22;26.55;;;;;;;-4.24;100.00;101934.22;5021161;28;20058;-73
2024/01/20 07:42:43;;;;;;;69.65;27.42;;;;;;;-4.25;100.00;101942.84;5018811;28;20466;-72
2024/01/20 07:45:18;;;;;;;65.15;26.08;;;;;;;-4.15;100.00;101934.59;5029577;28;20316;-68
2024/01/20 07:47:49;;;;;;;68.47;27.17;;;;;;;-4.18;100.00;101924.13;5016217;28;20053;-70
2024/01/20 07:50:17;;;;;;;62.80;26.63;;;;;;;-3.95;100.00;101954.31;5017149;28;20049;-70
2024/01/20 07:52:46;;;;;;;66.45;26.48;;;;;;;-3.91;100.00;101956.16;5034798;28;20045;-69
2024/01/20 07:55:14;;;;;;;65.10;26.55;;;;;;;-3.84;100.00;101961.56;5000710;28;20055;-70
2024/01/20 07:57:45;;;;;;;66.45;26.63;;;;;;;-3.67;100.00;101984.66;5018645;28;20667;-73
2024/01/20 08:00:19;;;;;;;58.65;25.15;;;;;;;-3.65;100.00;101969.19;5037208;28;20225;-70
2024/01/20 08:02:49;;;;;;;63.08;25.33;;;;;;;-3.64;100.00;101992.53;5021071;28;20038;-70
2024/01/20 08:05:19;;;;;;;61.50;25.23;;;;;;;-3.71;100.00;101987.06;5013169;28;20058;-71
2024/01/20 08:07:47;;;;;;;62.38;25.38;;;;;;;-3.90;100.00;101990.69;5032193;28;20053;-72
2024/01/20 08:10:20;;;;;;;62.35;26.30;;;;;;;-4.12;100.00;101991.63;5023553;28;20702;-70
2024/01/20 08:12:51;;;;;;;70.88;28.30;;;;;;;-4.26;100.00;101995.38;5019754;28;20061;-71
2024/01/20 08:15:23;;;;;;;;;;;;;;;-4.25;100.00;102003.16;5019986;28;20136;-70
2024/01/20 08:17:52;;;;;;;69.40;26.83;;;;;;;-4.28;100.00;102000.50;5034504;28;20297;-70
2024/01/20 08:20:21;;;;;;;68.77;26.00;;;;;;;-4.28;100.00;102009.97;5020214;28;20046;-69
2024/01/20 08:22:49;;;;;;;71.47;27.55;;;;;;;-4.30;100.00;102002.13;4986011;28;21031;-72
2024/01/20 08:25:21;;;;;;;77.00;28.23;;;;;;;-4.34;100.00;101991.59;5015200;28;20686;-70
2024/01/20 08:27:50;;;;;;;78.25;29.38;;;;;;;-4.31;100.00;101994.31;5018594;28;20049;-71
2024/01/20 08:30:23;;;;;;;75.38;28.65;;;;;;;-4.31;100.00;102002.06;5022307;28;20639;-69
2024/01/20 08:32:54;;;;;;;81.38;30.08;;;;;;;-4.37;100.00;101994.94;5018188;28;20132;-70
2024/01/20 08:35:28;;;;;;;75.45;30.58;;;;;;;-4.28;100.00;102004.78;5032174;28;20133;-71
2024/01/20 08:38:05;;;;;;;75.20;29.27;;;;;;;-4.32;100.00;101997.72;5036583;28;20159;-73
2024/01/20 08:40:34;;;;;;;77.47;29.05;;;;;;;-4.37;100.00;101997.53;5025199;28;20041;-73
2024/01/20 08:43:04;;;;;;;55.80;22.37;;;;;;;-4.36;100.00;102001.88;5022807;28;20050;-73
2024/01/20 08:45:33;;;;;;;64.28;26.88;;;;;;;-4.34;100.00;102014.88;5003050;28;20049;-70
2024/01/20 08:48:03;;;;;;;70.13;28.15;;;;;;;-4.33;100.00;102003.72;5035984;28;20038;-71
2024/01/20 08:50:31;;;;;;;;;;;;;;;-4.33;100.00;102011.47;5039522;28;20053;-70
2024/01/20 08:52:59;;;;;;;66.13;26.30;;;;;;;-4.35;100.00;102019.16;5035401;28;20329;-69
2024/01/20 08:55:29;;;;;;;70.70;28.75;;;;;;;-4.40;100.00;102017.22;5038333;28;20117;-68
2024/01/20 08:58:01;;;;;;;60.97;25.48;;;;;;;-4.35;100.00;102015.69;5019918;28;20069;-70
2024/01/20 09:00:34;;;;;;;72.13;28.30;;;;;;;-4.27;100.00;102017.78;5025935;28;20045;-70
2024/01/20 09:03:04;;;;;;;66.50;26.02;;;;;;;-4.19;100.00;102024.94;5021565;28;20055;-71
2024/01/20 09:05:32;;;;;;;63.25;27.08;;;;;;;-4.02;100.00;102019.59;5036237;28;20043;-69
2024/01/20 09:08:09;;;;;;;67.68;27.60;;;;;;;-3.90;100.00;102022.63;5020595;28;20116;-70
2024/01/20 09:10:38;;;;;;;61.08;26.42;;;;;;;-3.69;100.00;102024.25;5043566;28;20037;-71
2024/01/20 09:13:07;;;;;;;68.43;27.98;;;;;;;-3.65;100.00;102019.25;5022912;28;20096;-70
2024/01/20 09:15:38;;;;;;;62.05;25.65;;;;;;;-3.76;100.00;102022.25;5033072;28;20041;-72
2024/01/20 09:18:08;;;;;;;58.97;25.23;;;;;;;-3.77;100.00;102023.97;5033787;28;20037;-71
2024/01/20 09:20:37;;;;;;;67.75;27.77;;;;;;;-3.76;100.00;102017.06;5021832;28;20046;-71
2024/01/20 09:23:05;;;;;;;66.82;27.00;;;;;;;-3.85;100.00;102004.69;5022665;28;20041;-72
2024/01/20 09:25:38;;;;;;;66.88;28.42;;;;;;;-3.76;100.00;102014.50;5026751;28;20053;-70
2024/01/20 09:28:20;;;;;;;65.10;27.30;;;;;;;-3.77;100.00;102018.78;5018994;28;20072;-70
2024/01/20 09:30:53;;;;;;;68.35;28.50;;;;;;;-3.56;100.00;102018.69;5031615;28;20053;-71
2024/01/20 09:33:21;;;;;;;68.40;26.80;;;;;;;-3.38;100.00;102021.94;5039480;28;20110;-70
2024/01/20 09:35:50;;;;;;;58.35;25.45;;;;;;;-3.30;100.00;102025.66;5005004;28;20049;-68
2024/01/20 09:38:20;;;;;;;62.03;26.13;;;;;;;-3.24;100.00;102019.84;5019701;28;20048;-70
2024/01/20 09:40:48;;;;;;;62.03;25.42;;;;;;;-3.14;100.00;102026.22;5024722;28;20054;-71
2024/01/20 09:43:17;;;;;;;65.88;27.73;;;;;;;-3.22;100.00;102031.13;5015149;28;20045;-71
2024/01/20 09:45:45;;;;;;;61.13;25.35;;;;;;;-3.15;100.00;102022.75;5005162;28;20049;-69
2024/01/20 09:48:15;;;;;;;60.20;24.55;;;;;;;-3.05;100.00;102016.19;5001526;28;20055;-70
2024/01/20 09:50:45;;;;;;;60.40;25.42;;;;;;;-2.90;100.00;102038.31;5022300;28;20049;-70
2024/01/20 09:53:15;;;;;;;58.53;25.58;;;;;;;-2.86;100.00;102023.75;5037299;28;20115;-70
2024/01/20 09:55:43;;;;;;;58.42;24.63;;;;;;;-2.84;100.00;102027.28;5021100;28;20047;-71
2024/01/20 09:58:13;;;;;;;63.53;26.30;;;;;;;-3.08;100.00;102036.78;5032949;28;20045;-69
2024/01/20 10:00:42;;;;;;;60.78;26.25;;;;;;;-3.13;100.00;102028.84;5020860;28;20038;-71
2024/01/20 10:03:12;;;;;;;60.30;26.30;;;;;;;-2.94;100.00;102035.56;5021804;28;20056;-71
2024/01/20 10:05:42;;;;;;;45.17;19.95;;;;;;;-2.95;100.00;102037.25;5028517;28;20129;-70
2024/01/20 10:08:12;;;;;;;62.83;26.63;;;;;;;-2.86;100.00;102042.78;5022092;28;20140;-73
2024/01/20 10:10:40;;;;;;;70.85;27.65;;;;;;;-2.83;100.00;102035.06;5025408;28;20526;-71
2024/01/20 10:13:09;;;;;;;63.03;27.08;;;;;;;-2.77;100.00;102039.59;5023370;28;20123;-72
2024/01/20 10:15:40;;;;;;;66.43;27.48;;;;;;;-2.67;100.00;102038.16;5036464;28;20045;-72
2024/01/20 10:18:11;;;;;;;65.85;28.17;;;;;;;-2.61;100.00;102039.25;5018014;28;20160;-71
2024/01/20 10:20:40;;;;;;;65.55;28.33;;;;;;;-2.63;100.00;102033.16;5024854;28;20128;-71
2024/01/20 10:23:10;;;;;;;62.10;26.02;;;;;;;-2.62;100.00;102024.53;5040097;28;20424;-71
2024/01/20 10:25:41;;;;;;;65.10;26.92;;;;;;;-2.62;100.00;102023.66;5022309;28;20076;-71
2024/01/20 10:28:09;;;;;;;59.83;26.33;;;;;;;-3.01;100.00;102038.78;5016009;28;20053;-71
2024/01/20 10:30:42;;;;;;;59.42;26.25;;;;;;;-3.50;100.00;102026.69;5018993;28;20072;-71
2024/01/20 10:33:11;;;;;;;57.45;26.08;;;;;;;-3.94;100.00;102005.25;5003758;28;20052;-71
2024/01/20 10:35:39;;;;;;;63.17;25.98;;;;;;;-3.94;100.00;102027.66;5018692;28;21569;-70
2024/01/20 10:38:18;;;;;;;60.50;27.08;;;;;;;-4.02;100.00;102023.88;5013403;28;20046;-72
2024/01/20 10:40:51;;;;;;;67.38;27.00;;;;;;;-4.04;100.00;102017.75;5033964;28;20045;-71
2024/01/20 10:43:20;;;;;;;61.33;27.25;;;;;;;-4.03;100.00;102033.34;5023804;28;20073;-70
2024/01/20 10:45:58;;;;;;;67.43;28.10;;;;;;;-4.00;100.00;102040.34;5015940;28;20573;-73
2024/01/20 10:48:29;;;;;;;61.47;26.90;;;;;;;-3.80;100.00;102028.16;5017361;28;20049;-72
2024/01/20 10:50:59;;;;;;;63.75;26.60;;;;;;;-3.48;100.00;102034.53;5019071;28;20053;-70
2024/01/20 10:53:29;;;;;;;62.08;26.88;;;;;;;-3.36;100.00;102009.94;5036356;28;20042;-70
2024/01/20 10:55:59;;;;;;;60.25;26.20;;;;;;;-3.12;100.00;102015.06;5020876;28;20061;-70
2024/01/20 10:58:34;;;;;;;60.90;26.05;;;;;;;-2.79;100.00;102030.88;5016018;28;20053;-72
2024/01/20 11:01:05;;;;;;;57.38;24.33;;;;;;;-2.72;100.00;102016.41;5022205;28;20061;-71
2024/01/20 11:03:33;;;;;;;57.55;25.95;;;;;;;-2.65;100.00;102032.22;5005822;28;20053;-72
2024/01/20 11:06:02;;;;;;;65.88;27.58;;;;;;;-2.64;100.00;102005.44;5018022;28;20056;-70
2024/01/20 11:08:32;;;;;;;52.85;25.20;;;;;;;-2.56;100.00;102018.69;5029037;28;20050;-70
2024/01/20 11:11:00;;;;;;;49.97;23.88;;;;;;;-2.50;100.00;102029.22;5033775;28;20045;-73
2024/01/20 11:13:28;;;;;;;46.75;22.83;;;;;;;-2.86;100.00;102024.63;5020003;28;21433;-72
2024/01/20 11:15:59;;;;;;;47.35;23.35;;;;;;;-3.02;100.00;102021.47;5017797;28;20140;-71